Time;durP1;ratioP1;P1;durP2;ratioP2;P2;SDS_P1;SDS_P2;PMS_P1;PMS_P2;Temp;Humidity;BMP_temperature;BMP_pressure;BME280_temperature;BME280_humidity;BME280_pressure;Samples;Min_cycle;Max_cycle;Signal;HPM_P1;HPM_P2
2022/10/04 00:01:10;;;;;;;2.47;1.90;;;9.10;98.00;;;;;;5073931;28;20469;-67
2022/10/04 00:03:42;;;;;;;1.60;1.60;;;8.80;98.00;;;;;;5074201;28;20467;-66
2022/10/04 00:06:16;;;;;;;2.07;1.40;;;8.90;98.00;;;;;;5056139;28;20466;-66
2022/10/04 00:08:48;;;;;;;2.30;2.00;;;8.90;98.00;;;;;;5073960;28;20451;-67
2022/10/04 00:11:23;;;;;;;1.57;1.50;;;9.00;98.00;;;;;;5073895;28;20481;-67
2022/10/04 00:13:56;;;;;;;1.87;1.60;;;8.90;98.00;;;;;;5073931;28;20463;-66
2022/10/04 00:16:28;;;;;;;2.80;1.87;;;9.00;98.00;;;;;;5056477;28;20462;-66
2022/10/04 00:19:25;;;;;;;2.73;1.73;;;9.10;98.00;;;;;;5073694;28;20480;-66
2022/10/04 00:22:21;;;;;;;2.07;1.90;;;9.10;98.00;;;;;;5073620;28;20467;-67
2022/10/04 00:25:21;;;;;;;3.20;1.80;;;9.00;98.00;;;;;;5073542;28;20461;-66
2022/10/04 00:28:27;;;;;;;2.70;1.63;;;9.10;98.00;;;;;;5073198;28;21019;-67
2022/10/04 00:31:28;;;;;;;4.47;2.10;;;9.20;98.00;;;;;;5073446;28;20818;-66
2022/10/04 00:33:58;;;;;;;2.67;1.80;;;9.10;98.00;;;;;;5073520;28;20458;-67
2022/10/04 00:36:53;;;;;;;2.30;1.93;;;9.00;98.00;;;;;;5073453;28;20474;-66
2022/10/04 00:39:39;;;;;;;2.03;1.67;;;8.80;98.00;;;;;;5070738;28;20491;-66
2022/10/04 00:42:30;;;;;;;2.47;1.80;;;8.60;98.00;;;;;;5061115;28;20871;-66
2022/10/04 00:45:02;;;;;;;1.70;1.47;;;8.50;98.00;;;;;;5073361;28;20988;-66
2022/10/04 00:47:39;;;;;;;1.90;1.43;;;8.50;98.00;;;;;;5073550;28;20823;-67
2022/10/04 00:50:15;;;;;;;1.50;1.50;;;8.60;98.00;;;;;;5073250;28;20456;-67
2022/10/04 00:52:47;;;;;;;3.00;1.80;;;8.60;98.00;;;;;;5055531;28;20462;-67
2022/10/04 00:55:24;;;;;;;2.70;1.60;;;8.40;98.00;;;;;;5073173;28;20460;-66
2022/10/04 00:57:58;;;;;;;1.67;1.23;;;8.30;98.00;;;;;;5073150;28;20557;-66
2022/10/04 01:00:32;;;;;;;1.60;1.47;;;8.30;98.00;;;;;;5072935;28;20497;-66
2022/10/04 01:03:03;;;;;;;2.27;1.60;;;8.50;98.00;;;;;;5073238;28;20509;-66
2022/10/04 01:05:33;;;;;;;2.13;1.70;;;8.60;98.00;;;;;;5073057;28;20517;-66
2022/10/04 01:08:08;;;;;;;2.03;1.93;;;8.60;98.00;;;;;;5073038;28;20666;-66
2022/10/04 01:10:42;;;;;;;1.70;1.40;;;8.60;98.00;;;;;;5073259;28;20943;-66
2022/10/04 01:13:16;;;;;;;2.00;1.37;;;8.70;98.00;;;;;;5073007;28;20464;-67
2022/10/04 01:15:52;;;;;;;2.13;1.50;;;8.80;98.00;;;;;;5072918;28;20539;-66
2022/10/04 01:18:30;;;;;;;1.50;1.40;;;8.70;98.00;;;;;;5054952;28;21010;-67
2022/10/04 01:21:00;;;;;;;1.47;1.40;;;8.80;98.00;;;;;;5072651;28;21020;-66
2022/10/04 01:23:44;;;;;;;1.87;1.50;;;8.60;98.00;;;;;;5072639;28;20449;-66
2022/10/04 01:26:41;;;;;;;3.33;2.00;;;8.50;98.00;;;;;;5072467;28;20486;-66
2022/10/04 01:29:12;;;;;;;1.83;1.70;;;8.40;98.00;;;;;;4990777;28;20461;-67
2022/10/04 01:31:42;;;;;;;2.80;1.77;;;8.40;98.00;;;;;;5055839;28;20465;-66
2022/10/04 01:34:13;;;;;;;1.53;1.40;;;8.30;98.00;;;;;;5072488;28;20455;-67
2022/10/04 01:36:40;;;;;;;4.00;1.80;;;8.40;98.00;;;;;;5072273;28;20514;-66
2022/10/04 01:39:09;;;;;;;1.60;1.40;;;8.30;98.00;;;;;;5071941;28;20541;-67
2022/10/04 01:41:44;;;;;;;2.50;1.67;;;8.30;98.00;;;;;;5071958;28;21025;-66
2022/10/04 01:44:23;;;;;;;1.73;1.63;;;8.30;98.00;;;;;;5072904;28;20461;-67
2022/10/04 01:46:52;;;;;;;2.10;1.70;;;8.20;98.00;;;;;;5072187;28;20458;-66
2022/10/04 01:49:23;;;;;;;2.50;1.67;;;8.30;98.00;;;;;;5072316;28;20460;-66
2022/10/04 01:51:56;;;;;;;4.40;1.73;;;8.30;98.00;;;;;;5072121;28;20464;-66
2022/10/04 01:54:33;;;;;;;2.03;1.53;;;8.10;98.00;;;;;;5072008;28;20513;-66
2022/10/04 01:57:11;;;;;;;3.53;1.40;;;7.90;98.00;;;;;;5071788;28;20466;-66
2022/10/04 01:59:44;;;;;;;2.10;1.70;;;7.80;98.00;;;;;;5055094;28;20570;-66
2022/10/04 02:02:21;;;;;;;1.90;1.40;;;7.90;98.00;;;;;;5071791;28;20465;-66
2022/10/04 02:04:53;;;;;;;2.13;1.70;;;8.00;98.00;;;;;;5071858;28;20826;-66
2022/10/04 02:07:22;;;;;;;2.80;1.70;;;8.10;98.00;;;;;;5071894;28;20516;-66
2022/10/04 02:09:55;;;;;;;1.90;1.60;;;8.10;98.00;;;;;;5071624;28;20458;-66
2022/10/04 02:12:23;;;;;;;1.40;1.37;;;8.10;98.00;;;;;;5071613;28;20955;-66
2022/10/04 02:14:52;;;;;;;2.00;1.53;;;8.30;98.00;;;;;;5071557;28;20460;-66
2022/10/04 02:17:23;;;;;;;1.80;1.37;;;8.50;98.00;;;;;;5071626;28;20472;-66
2022/10/04 02:19:51;;;;;;;1.83;1.80;;;8.60;98.00;;;;;;5071495;28;20879;-66
2022/10/04 02:22:20;;;;;;;1.50;1.30;;;8.70;98.00;;;;;;5053868;28;20898;-66
2022/10/04 02:24:50;;;;;;;2.50;1.97;;;8.70;98.00;;;;;;5071495;28;20452;-66
2022/10/04 02:27:17;;;;;;;1.93;1.80;;;8.40;98.00;;;;;;5071471;28;20464;-66
2022/10/04 02:29:44;;;;;;;2.23;1.70;;;8.20;98.00;;;;;;5071526;28;20459;-66
2022/10/04 02:34:58;;;;;;;2.17;1.80;;;8.00;98.00;;;;;;5071431;28;20436;-66
2022/10/04 02:37:27;;;;;;;1.90;1.70;;;8.00;98.00;;;;;;5071517;28;20947;-66
2022/10/04 02:40:04;;;;;;;1.43;1.10;;;8.10;98.00;;;;;;5071290;28;20485;-66
2022/10/04 02:42:39;;;;;;;2.57;1.73;;;8.10;98.00;;;;;;5071788;28;20555;-66
2022/10/04 02:45:16;;;;;;;2.33;1.87;;;8.10;98.00;;;;;;5071306;28;20860;-66
2022/10/04 02:47:47;;;;;;;2.07;1.57;;;8.10;98.00;;;;;;5071489;28;20746;-66
2022/10/04 02:50:25;;;;;;;2.33;1.70;;;8.20;98.00;;;;;;5071130;28;20455;-66
2022/10/04 02:52:58;;;;;;;2.80;1.93;;;8.20;98.00;;;;;;5071111;28;20452;-66
2022/10/04 02:55:30;;;;;;;1.60;1.57;;;8.10;98.00;;;;;;5071378;28;20518;-66
2022/10/04 02:57:59;;;;;;;2.73;2.00;;;8.10;98.00;;;;;;5071158;28;20456;-66
2022/10/04 03:00:28;;;;;;;1.97;1.50;;;8.10;98.00;;;;;;5071041;28;20855;-66
2022/10/04 03:03:22;;;;;;;1.90;1.77;;;8.10;98.00;;;;;;5053410;28;20453;-66
2022/10/04 03:05:59;;;;;;;3.33;2.00;;;8.10;98.00;;;;;;5071211;28;20457;-66
2022/10/04 03:08:28;;;;;;;5.43;2.03;;;8.10;98.00;;;;;;5054135;28;20453;-66
2022/10/04 03:10:59;;;;;;;1.97;1.60;;;8.20;98.00;;;;;;5071213;28;20499;-66
2022/10/04 03:13:27;;;;;;;2.90;1.40;;;8.10;98.00;;;;;;5070960;28;20660;-66
2022/10/04 03:15:54;;;;;;;2.27;1.67;;;8.10;98.00;;;;;;5070889;28;20890;-66
2022/10/04 03:18:22;;;;;;;4.73;1.50;;;8.00;98.00;;;;;;5053066;28;20955;-66
2022/10/04 03:20:50;;;;;;;2.97;1.93;;;8.00;98.00;;;;;;5070729;28;20558;-66
2022/10/04 03:23:19;;;;;;;2.47;2.27;;;7.90;98.00;;;;;;5070880;28;20963;-66
2022/10/04 03:25:52;;;;;;;2.47;1.60;;;7.90;98.00;;;;;;5070787;28;20460;-66
2022/10/04 03:28:21;;;;;;;1.60;1.30;;;7.80;98.00;;;;;;5070871;28;20824;-66
2022/10/04 03:30:49;;;;;;;1.40;1.40;;;7.80;98.00;;;;;;5052918;28;20472;-66
2022/10/04 03:33:22;;;;;;;2.40;1.63;;;7.70;98.00;;;;;;5070877;28;20513;-66
2022/10/04 03:35:53;;;;;;;5.40;2.93;;;7.70;98.00;;;;;;5070744;28;20565;-66
2022/10/04 03:38:22;;;;;;;2.50;1.57;;;7.60;98.00;;;;;;5070962;28;20481;-66
2022/10/04 03:40:55;;;;;;;1.60;1.23;;;7.50;98.00;;;;;;5070929;28;21002;-66
2022/10/04 03:43:27;;;;;;;1.50;1.33;;;7.40;98.00;;;;;;5070872;28;20518;-66
2022/10/04 03:45:57;;;;;;;1.77;1.43;;;7.50;98.00;;;;;;5070750;28;20897;-66
2022/10/04 03:48:31;;;;;;;2.80;1.60;;;7.50;98.00;;;;;;5070701;28;20490;-66
2022/10/04 03:50:59;;;;;;;1.90;1.73;;;7.80;98.00;;;;;;5052639;28;20960;-66
2022/10/04 03:53:34;;;;;;;1.30;1.27;;;7.90;98.00;;;;;;5070802;28;20456;-66
2022/10/04 03:56:03;;;;;;;1.70;1.40;;;8.10;98.00;;;;;;5070577;28;20459;-66
2022/10/04 03:58:33;;;;;;;2.47;1.47;;;8.20;98.00;;;;;;5070875;28;20494;-66
2022/10/04 04:01:12;;;;;;;4.80;1.70;;;8.10;98.00;;;;;;5070234;28;20491;-66
2022/10/04 04:03:50;;;;;;;2.57;2.37;;;7.90;98.00;;;;;;5072314;28;20457;-66
2022/10/04 04:06:19;;;;;;;27.97;2.03;;;7.70;98.00;;;;;;5057267;28;20855;-66
2022/10/04 04:08:52;;;;;;;2.10;1.60;;;7.80;98.00;;;;;;5074031;28;20457;-66
2022/10/04 04:11:24;;;;;;;1.50;1.50;;;7.70;98.00;;;;;;5074141;28;20449;-66
2022/10/04 04:13:59;;;;;;;3.67;1.73;;;7.60;98.00;;;;;;5074180;28;20462;-66
2022/10/04 04:16:27;;;;;;;2.50;1.73;;;7.50;98.00;;;;;;5073847;28;20495;-66
2022/10/04 04:18:59;;;;;;;1.20;1.20;;;7.40;98.00;;;;;;5055920;28;20468;-66
2022/10/04 04:21:27;;;;;;;1.50;1.30;;;7.20;98.00;;;;;;5073811;28;21006;-66
2022/10/04 04:23:59;;;;;;;2.00;1.80;;;7.20;98.00;;;;;;5074074;28;20458;-66
2022/10/04 04:26:35;;;;;;;1.63;1.43;;;7.20;98.00;;;;;;5073666;28;20962;-66
2022/10/04 04:29:09;;;;;;;2.33;1.60;;;7.20;98.00;;;;;;5073630;28;20593;-66
2022/10/04 04:31:42;;;;;;;1.93;1.60;;;7.30;98.00;;;;;;5073694;28;20511;-66
2022/10/04 04:34:19;;;;;;;1.70;1.40;;;7.50;98.00;;;;;;5073615;28;20517;-66
2022/10/04 04:36:47;;;;;;;4.60;2.20;;;7.80;98.00;;;;;;5073551;28;20478;-66
2022/10/04 04:42:04;;;;;;;1.60;1.40;;;8.00;98.00;;;;;;5073871;28;20448;-66
2022/10/04 04:44:33;;;;;;;1.70;1.50;;;8.00;98.00;;;;;;5073806;28;20814;-66
2022/10/04 04:47:01;;;;;;;2.10;1.63;;;7.60;98.00;;;;;;5073337;28;20809;-66
2022/10/04 04:49:30;;;;;;;1.97;1.60;;;7.40;98.00;;;;;;5073265;28;20454;-66
2022/10/04 04:51:58;;;;;;;2.93;2.03;;;7.50;98.00;;;;;;5073352;28;20451;-66
2022/10/04 04:54:27;;;;;;;1.40;1.40;;;7.60;98.00;;;;;;5073359;28;20441;-66
2022/10/04 04:56:57;;;;;;;1.90;1.50;;;7.60;98.00;;;;;;5055720;28;20483;-66
2022/10/04 04:59:25;;;;;;;3.17;1.80;;;7.70;98.00;;;;;;5073049;28;20505;-66
2022/10/04 05:01:54;;;;;;;3.20;1.93;;;7.80;98.00;;;;;;5073135;28;20579;-66
2022/10/04 05:04:23;;;;;;;1.63;1.30;;;7.60;98.00;;;;;;5071919;28;20464;-66
2022/10/04 05:07:01;;;;;;;3.10;1.70;;;7.70;98.00;;;;;;5073176;28;20526;-66
2022/10/04 05:09:31;;;;;;;2.13;1.60;;;7.50;98.00;;;;;;5072906;28;20514;-66
2022/10/04 05:12:06;;;;;;;2.10;1.80;;;7.40;98.00;;;;;;5072657;28;20466;-66
2022/10/04 05:14:33;;;;;;;2.00;1.50;;;7.40;98.00;;;;;;5071734;28;20463;-66
2022/10/04 05:17:02;;;;;;;2.87;1.77;;;7.60;98.00;;;;;;5072925;28;20978;-66
2022/10/04 05:19:32;;;;;;;1.30;1.27;;;7.50;98.00;;;;;;5072641;28;20464;-66
2022/10/04 05:22:01;;;;;;;1.73;1.23;;;7.30;98.00;;;;;;5054792;28;20491;-66
2022/10/04 05:24:31;;;;;;;1.70;1.70;;;7.10;98.00;;;;;;5072424;28;20950;-66
2022/10/04 05:27:01;;;;;;;4.70;2.20;;;7.10;98.00;;;;;;5072413;28;20467;-67
2022/10/04 05:29:31;;;;;;;1.90;1.50;;;7.20;98.00;;;;;;5072586;28;20461;-66
2022/10/04 05:32:12;;;;;;;2.70;1.30;;;7.20;98.00;;;;;;5072435;28;20543;-67
2022/10/04 05:34:41;;;;;;;2.50;1.40;;;7.40;98.00;;;;;;5055031;28;20463;-66
2022/10/04 05:37:27;;;;;;;1.70;1.40;;;7.40;98.00;;;;;;5072400;28;20515;-66
2022/10/04 05:40:04;;;;;;;4.50;1.67;;;7.40;98.00;;;;;;5072617;28;20853;-66
2022/10/04 05:42:40;;;;;;;1.70;1.40;;;7.40;98.00;;;;;;5072591;28;20457;-66
2022/10/04 05:45:19;;;;;;;1.83;1.80;;;7.40;98.00;;;;;;5072065;28;20451;-66
2022/10/04 05:47:57;;;;;;;1.43;1.27;;;7.60;98.00;;;;;;5072202;28;20475;-66
2022/10/04 05:50:31;;;;;;;2.10;1.50;;;7.60;98.00;;;;;;5072034;28;20456;-66
2022/10/04 05:53:18;;;;;;;1.77;1.50;;;7.60;98.00;;;;;;5072017;28;20452;-66
2022/10/04 05:55:55;;;;;;;2.47;1.60;;;7.60;98.00;;;;;;5072040;28;20465;-66
2022/10/04 05:58:43;;;;;;;2.00;1.40;;;7.80;98.00;;;;;;5072279;28;20542;-66
2022/10/04 06:01:24;;;;;;;4.53;1.40;;;7.70;98.00;;;;;;5053799;28;20982;-66
2022/10/04 06:04:29;;;;;;;2.30;1.87;;;7.60;98.00;;;;;;5072067;28;20457;-66
2022/10/04 06:07:01;;;;;;;2.50;1.60;;;7.50;98.00;;;;;;5063929;28;20537;-66
2022/10/04 06:10:17;;;;;;;2.60;1.63;;;7.30;98.00;;;;;;5071697;28;20459;-66
2022/10/04 06:12:54;;;;;;;2.80;1.53;;;7.40;98.00;;;;;;5053086;28;20961;-66
2022/10/04 06:16:05;;;;;;;3.10;1.70;;;7.50;98.00;;;;;;5071682;28;20491;-66
2022/10/04 06:18:49;;;;;;;2.90;1.80;;;7.60;98.00;;;;;;5057049;28;20452;-66
2022/10/04 06:21:21;;;;;;;1.27;1.20;;;7.40;98.00;;;;;;5071808;28;20487;-66
2022/10/04 06:23:55;;;;;;;1.33;1.30;;;7.40;98.00;;;;;;5071546;28;20808;-64
2022/10/04 06:26:25;;;;;;;1.90;1.47;;;7.70;98.00;;;;;;5071110;28;20463;-64
2022/10/04 06:28:55;;;;;;;3.90;1.90;;;7.80;98.00;;;;;;5071491;28;20519;-63
2022/10/04 06:32:01;;;;;;;2.00;1.43;;;7.90;98.00;;;;;;5053544;28;20466;-64
2022/10/04 06:34:46;;;;;;;3.53;1.97;;;8.00;98.00;;;;;;5071402;28;20458;-64
2022/10/04 06:37:35;;;;;;;2.20;1.73;;;8.20;98.00;;;;;;5053423;28;20803;-63
2022/10/04 06:40:37;;;;;;;3.00;2.17;;;8.30;98.00;;;;;;5071519;28;20981;-64
2022/10/04 06:43:33;;;;;;;8.80;2.90;;;8.30;98.00;;;;;;5068335;28;20962;-63
2022/10/04 06:46:09;;;;;;;2.53;1.60;;;8.40;98.00;;;;;;5071255;28;20511;-64
2022/10/04 06:49:13;;;;;;;3.10;1.67;;;8.50;98.00;;;;;;5054257;28;20461;-63
2022/10/04 06:51:55;;;;;;;1.60;1.60;;;8.50;98.00;;;;;;5071275;28;20548;-64
2022/10/04 06:54:38;;;;;;;4.60;1.80;;;8.40;98.00;;;;;;5071209;28;20540;-64
2022/10/04 06:57:28;;;;;;;3.40;2.37;;;8.30;98.00;;;;;;5071130;28;20947;-63
2022/10/04 07:00:16;;;;;;;2.33;2.07;;;8.30;98.00;;;;;;5071224;28;20960;-64
2022/10/04 07:02:47;;;;;;;3.00;2.20;;;8.20;98.00;;;;;;5070825;28;20467;-63
2022/10/04 07:05:29;;;;;;;4.87;2.90;;;8.10;98.00;;;;;;5070950;28;20465;-64
2022/10/04 07:08:06;;;;;;;2.43;2.00;;;8.10;98.00;;;;;;5071048;28;20459;-64
2022/10/04 07:10:40;;;;;;;4.23;1.97;;;8.20;98.00;;;;;;5054535;28;21006;-64
2022/10/04 07:13:23;;;;;;;2.33;1.90;;;8.40;98.00;;;;;;5071002;28;20522;-64
2022/10/04 07:15:56;;;;;;;2.50;1.70;;;8.30;98.00;;;;;;5071041;28;20472;-63
2022/10/04 07:18:29;;;;;;;1.93;1.87;;;8.30;98.00;;;;;;5069738;28;20818;-64
2022/10/04 07:21:03;;;;;;;3.60;2.00;;;8.40;98.00;;;;;;5071025;28;20484;-63
2022/10/04 07:23:33;;;;;;;2.20;1.70;;;8.70;98.00;;;;;;5068423;28;20550;-64
2022/10/04 07:26:06;;;;;;;1.93;1.57;;;8.80;98.00;;;;;;5068345;28;20456;-63
2022/10/04 07:31:30;;;;;;;2.30;1.67;;;8.80;98.00;;;;;;5060444;28;20440;-64
2022/10/04 07:34:01;;;;;;;1.83;1.70;;;8.90;98.00;;;;;;5068060;28;20959;-64
2022/10/04 07:36:39;;;;;;;3.07;1.90;;;8.90;98.00;;;;;;5068308;28;20466;-64
2022/10/04 07:39:13;;;;;;;2.83;1.90;;;8.90;98.00;;;;;;5070875;28;20456;-64
2022/10/04 07:41:50;;;;;;;4.03;1.60;;;9.00;98.00;;;;;;5071773;28;20568;-65
2022/10/04 07:44:26;;;;;;;3.00;2.10;;;9.20;98.00;;;;;;5072492;28;20464;-64
2022/10/04 07:46:59;;;;;;;3.00;1.90;;;9.30;98.00;;;;;;5072199;28;20838;-66
2022/10/04 07:49:27;;;;;;;2.90;1.80;;;9.20;98.00;;;;;;5069624;28;20518;-64
2022/10/04 07:52:19;;;;;;;4.00;2.30;;;9.30;98.00;;;;;;5071925;28;20482;-64
2022/10/04 07:54:57;;;;;;;3.70;2.40;;;9.30;98.00;;;;;;5072135;28;21051;-65
2022/10/04 07:57:35;;;;;;;3.73;2.20;;;9.30;98.00;;;;;;5046192;28;20465;-64
2022/10/04 08:00:06;;;;;;;4.23;1.97;;;9.40;98.00;;;;;;5071616;28;20463;-64
2022/10/04 08:02:48;;;;;;;2.00;1.57;;;9.40;98.00;;;;;;5071420;28;20502;-65
2022/10/04 08:05:25;;;;;;;3.00;2.07;;;9.50;98.00;;;;;;5070799;28;20460;-65
2022/10/04 08:08:15;;;;;;;3.13;1.87;;;9.60;98.00;;;;;;5071787;28;20478;-64
2022/10/04 08:10:55;;;;;;;4.23;2.40;;;9.70;98.00;;;;;;5073540;28;20851;-65
2022/10/04 08:13:33;;;;;;;2.80;2.10;;;9.80;98.00;;;;;;5074032;28;20483;-64
2022/10/04 08:16:04;;;;;;;1.90;1.57;;;9.90;98.00;;;;;;5073902;28;20891;-64
2022/10/04 08:18:46;;;;;;;2.80;1.97;;;10.00;98.00;;;;;;5056534;28;21020;-64
2022/10/04 08:21:19;;;;;;;5.53;2.10;;;10.20;98.00;;;;;;5073512;28;20486;-65
2022/10/04 08:24:03;;;;;;;2.80;1.70;;;10.40;98.00;;;;;;5073932;28;20469;-64
2022/10/04 08:26:43;;;;;;;1.93;1.77;;;10.40;98.00;;;;;;5073937;28;20460;-65
2022/10/04 08:29:42;;;;;;;5.53;2.47;;;10.50;98.00;;;;;;5073734;28;20463;-65
2022/10/04 08:32:26;;;;;;;2.90;2.27;;;10.50;98.00;;;;;;5073509;28;20959;-64
2022/10/04 08:35:15;;;;;;;3.67;2.07;;;10.60;98.00;;;;;;5073143;28;20468;-64
2022/10/04 08:37:53;;;;;;;3.80;2.50;;;10.80;98.00;;;;;;5073740;28;20535;-64
2022/10/04 08:40:58;;;;;;;2.10;1.67;;;10.80;98.00;;;;;;5073679;28;20455;-65
2022/10/04 08:43:50;;;;;;;2.90;2.13;;;10.90;98.00;;;;;;5073851;28;20842;-64
2022/10/04 08:46:34;;;;;;;1.77;1.60;;;11.10;98.00;;;;;;5044729;28;20464;-65
2022/10/04 08:49:28;;;;;;;2.30;2.00;;;11.20;98.00;;;;;;5073200;28;20517;-65
2022/10/04 08:52:35;;;;;;;2.27;2.00;;;11.30;98.00;;;;;;5073302;28;20453;-65
2022/10/04 08:55:45;;;;;;;2.60;2.23;;;11.60;98.00;;;;;;5010919;28;20447;-65
2022/10/04 08:58:45;;;;;;;2.47;2.00;;;11.90;98.00;;;;;;5052830;28;20453;-65
2022/10/04 09:01:39;;;;;;;3.23;1.93;;;12.10;98.00;;;;;;5072915;28;20480;-65
2022/10/04 09:04:46;;;;;;;4.50;2.00;;;12.20;98.00;;;;;;5072951;28;20556;-65
2022/10/04 09:07:45;;;;;;;3.70;2.57;;;12.40;98.00;;;;;;5072955;28;20457;-67
2022/10/04 09:10:45;;;;;;;4.00;1.73;;;12.60;98.00;;;;;;5073047;28;20544;-66
2022/10/04 09:13:45;;;;;;;2.07;1.57;;;13.20;98.00;;;;;;5069868;28;20463;-67
2022/10/04 09:16:17;;;;;;;3.90;2.00;;;14.00;98.00;;;;;;5072751;28;20490;-67
2022/10/04 09:19:19;;;;;;;4.40;2.27;;;14.70;98.00;;;;;;5072846;28;20874;-67
2022/10/04 09:22:10;;;;;;;6.10;2.40;;;15.40;98.00;;;;;;5072731;28;20491;-67
2022/10/04 09:25:16;;;;;;;6.33;3.00;;;16.00;98.00;;;;;;5072677;28;20559;-67
2022/10/04 09:28:19;;;;;;;2.80;2.40;;;16.50;98.00;;;;;;5072575;28;20519;-67
2022/10/04 09:31:11;;;;;;;6.23;2.93;;;16.70;98.00;;;;;;5015720;28;20478;-64
2022/10/04 09:34:01;;;;;;;6.03;3.53;;;17.00;98.00;;;;;;5054245;28;20503;-65
2022/10/04 09:37:02;;;;;;;5.17;3.20;;;16.70;98.00;;;;;;5072274;28;21004;-64
2022/10/04 09:39:49;;;;;;;5.43;2.70;;;16.50;98.00;;;;;;5072564;28;20463;-64
2022/10/04 09:42:32;;;;;;;7.47;2.70;;;16.40;98.00;;;;;;5072465;28;20840;-65
2022/10/04 09:45:30;;;;;;;3.90;2.40;;;16.40;98.00;;;;;;5054668;28;20463;-65
2022/10/04 09:48:23;;;;;;;3.40;2.53;;;16.50;98.00;;;;;;5070321;28;20465;-65
2022/10/04 09:51:25;;;;;;;4.13;2.70;;;16.40;98.00;;;;;;5067324;28;20551;-65
2022/10/04 09:54:18;;;;;;;3.00;2.20;;;16.40;98.00;;;;;;5069509;28;20465;-64
2022/10/04 09:57:12;;;;;;;2.77;2.23;;;16.80;98.00;;;;;;5069538;28;20473;-65
2022/10/04 10:00:04;;;;;;;3.97;1.97;;;17.00;98.00;;;;;;5069578;28;20838;-64
2022/10/04 10:03:07;;;;;;;3.20;2.13;;;17.10;98.00;;;;;;5061547;28;20887;-64
2022/10/04 10:05:54;;;;;;;8.23;2.30;;;17.30;98.00;;;;;;5069374;28;20658;-64
2022/10/04 10:08:31;;;;;;;2.23;1.80;;;17.30;98.00;;;;;;5069145;28;20510;-65
2022/10/04 10:14:38;;;;;;;2.40;2.00;;;17.30;98.00;;;;;;5069442;28;20541;-65
2022/10/04 10:17:14;;;;;;;3.00;2.00;;;17.40;98.00;;;;;;5051782;28;20459;-65
2022/10/04 10:20:10;;;;;;;3.10;2.00;;;17.60;98.00;;;;;;5069210;28;20532;-64
2022/10/04 10:23:11;;;;;;;3.37;1.77;;;17.80;98.00;;;;;;5069053;28;20803;-65
2022/10/04 10:25:51;;;;;;;2.60;1.90;;;17.90;98.00;;;;;;5012272;28;20535;-66
2022/10/04 10:28:40;;;;;;;2.70;1.80;;;18.10;98.00;;;;;;5061779;28;20454;-65
2022/10/04 10:31:29;;;;;;;3.27;1.90;;;18.10;98.00;;;;;;5069215;28;20479;-65
2022/10/04 10:34:33;;;;;;;3.30;2.10;;;18.20;98.00;;;;;;5069103;28;20457;-65
2022/10/04 10:37:10;;;;;;;2.87;1.97;;;18.40;98.00;;;;;;5053171;28;20465;-64
2022/10/04 10:40:16;;;;;;;5.80;2.43;;;18.60;98.00;;;;;;5068782;28;20745;-65
2022/10/04 10:43:00;;;;;;;4.33;2.00;;;18.70;98.00;;;;;;5069108;28;20523;-65
2022/10/04 10:45:45;;;;;;;3.23;1.77;;;18.80;98.00;;;;;;5069638;28;20548;-66
2022/10/04 10:48:18;;;;;;;2.83;1.97;;;18.90;98.00;;;;;;5062905;28;20538;-65
2022/10/04 10:51:03;;;;;;;3.10;2.20;;;19.00;98.00;;;;;;5067211;28;20465;-64
2022/10/04 10:54:04;;;;;;;3.33;2.10;;;19.10;98.00;;;;;;5068719;28;20496;-64
2022/10/04 10:56:45;;;;;;;2.60;1.80;;;19.10;98.00;;;;;;5051420;28;20453;-65
2022/10/04 10:59:46;;;;;;;4.43;2.33;;;19.30;98.00;;;;;;5061469;28;20539;-64
2022/10/04 11:02:54;;;;;;;3.87;2.30;;;19.60;98.00;;;;;;5068379;28;20989;-64
2022/10/04 11:05:56;;;;;;;5.17;2.63;;;19.80;98.00;;;;;;5068693;28;20496;-65
2022/10/04 11:09:09;;;;;;;2.03;1.83;;;19.90;98.00;;;;;;5068799;28;20448;-65
2022/10/04 11:12:04;;;;;;;2.20;1.77;;;20.20;98.00;;;;;;5031891;28;20476;-64
2022/10/04 11:15:19;;;;;;;3.23;1.80;;;20.40;98.00;;;;;;5072745;28;20456;-64
2022/10/04 11:18:18;;;;;;;2.00;1.63;;;20.60;98.00;;;;;;5072487;28;20448;-64
2022/10/04 11:21:20;;;;;;;2.17;1.67;;;20.80;98.00;;;;;;5070223;28;20543;-64
2022/10/04 11:24:22;;;;;;;2.60;1.83;;;21.10;98.00;;;;;;5064314;28;20499;-64
2022/10/04 11:27:17;;;;;;;2.63;1.80;;;21.40;98.00;;;;;;5062087;28;20456;-65
2022/10/04 11:30:04;;;;;;;1.97;1.70;;;22.00;98.00;;;;;;5073817;28;20842;-63
2022/10/04 11:33:06;;;;;;;1.97;1.70;;;22.40;95.90;;;;;;5058131;28;20896;-64
2022/10/04 11:35:53;;;;;;;1.90;1.60;;;22.50;92.50;;;;;;5073043;28;20496;-65
2022/10/04 11:38:34;;;;;;;3.93;1.60;;;22.50;93.60;;;;;;5074607;28;20455;-65
2022/10/04 11:41:17;;;;;;;2.50;2.10;;;22.60;92.90;;;;;;5074662;28;20467;-64
2022/10/04 11:44:14;;;;;;;2.40;1.90;;;22.70;93.80;;;;;;5074544;28;20546;-63
2022/10/04 11:46:48;;;;;;;6.70;2.10;;;22.90;92.70;;;;;;5074650;28;20489;-64
2022/10/04 11:49:45;;;;;;;5.10;1.80;;;23.00;91.10;;;;;;5074787;28;20555;-64
2022/10/04 11:53:03;;;;;;;3.37;2.00;;;22.90;92.70;;;;;;5074324;28;20464;-63
2022/10/04 11:56:03;;;;;;;2.17;1.70;;;23.00;93.80;;;;;;5012206;28;20555;-63
2022/10/04 11:58:49;;;;;;;2.00;1.60;;;23.50;92.20;;;;;;4996523;28;21202;-64
2022/10/04 12:02:01;;;;;;;2.90;1.83;;;23.60;90.10;;;;;;5011979;28;20474;-63
2022/10/04 12:05:15;;;;;;;3.20;2.20;;;23.60;91.00;;;;;;5060138;28;20530;-64
2022/10/04 12:08:04;;;;;;;2.50;1.83;;;23.70;91.90;;;;;;5073983;28;20460;-64
2022/10/04 12:10:36;;;;;;;1.70;1.50;;;23.90;91.20;;;;;;5074046;28;20555;-64
2022/10/04 12:13:39;;;;;;;2.70;1.93;;;24.00;92.10;;;;;;5073905;28;20461;-64
2022/10/04 12:16:28;;;;;;;1.80;1.60;;;24.00;90.90;;;;;;5074004;28;20547;-65
2022/10/04 12:19:26;;;;;;;1.77;1.53;;;23.70;89.90;;;;;;5073945;28;20452;-64
2022/10/04 12:22:19;;;;;;;1.77;1.50;;;23.80;89.80;;;;;;5073856;28;20527;-65
2022/10/04 12:25:19;;;;;;;2.80;1.90;;;23.60;88.50;;;;;;5073299;28;20453;-64
2022/10/04 12:28:00;;;;;;;2.03;1.70;;;23.40;88.40;;;;;;5041042;28;20456;-64
2022/10/04 12:30:42;;;;;;;2.40;1.90;;;23.60;87.80;;;;;;5073992;28;20460;-65
2022/10/04 12:33:18;;;;;;;3.17;2.50;;;23.70;89.60;;;;;;5073895;28;20459;-65
2022/10/04 12:35:58;;;;;;;2.40;1.90;;;23.70;88.70;;;;;;5073664;28;20459;-64
2022/10/04 12:38:40;;;;;;;1.97;1.53;;;23.80;88.40;;;;;;5073732;28;20464;-64
2022/10/04 12:41:19;;;;;;;1.70;1.67;;;24.00;85.40;;;;;;5073675;28;20864;-64
2022/10/04 12:43:59;;;;;;;2.43;1.53;;;24.20;86.80;;;;;;5073779;28;20512;-64
2022/10/04 12:46:37;;;;;;;2.30;1.57;;;24.20;86.10;;;;;;5073720;28;20468;-64
2022/10/04 12:49:16;;;;;;;1.90;1.83;;;24.10;85.40;;;;;;5073506;28;20457;-65
2022/10/04 12:51:55;;;;;;;2.10;1.60;;;24.10;85.30;;;;;;5073559;28;20461;-65
2022/10/04 12:54:43;;;;;;;2.00;1.70;;;24.10;85.50;;;;;;5073482;28;20452;-65
2022/10/04 12:57:44;;;;;;;1.70;1.63;;;24.20;84.20;;;;;;5073330;28;20537;-63
2022/10/04 13:00:19;;;;;;;2.53;1.83;;;24.50;86.00;;;;;;5072980;28;20464;-64
2022/10/04 13:03:06;;;;;;;1.93;1.70;;;24.90;84.60;;;;;;5072931;28;20481;-64
2022/10/04 13:05:40;;;;;;;6.60;1.90;;;25.10;81.50;;;;;;5073165;28;20467;-64
2022/10/04 13:08:38;;;;;;;2.10;1.63;;;25.40;80.80;;;;;;5073008;28;20867;-63
2022/10/04 13:11:35;;;;;;;2.27;1.77;;;25.60;77.30;;;;;;5072978;28;20472;-64
2022/10/04 13:14:27;;;;;;;1.70;1.50;;;25.40;79.40;;;;;;5073044;28;20837;-64
2022/10/04 13:17:02;;;;;;;1.77;1.63;;;25.50;82.00;;;;;;5073164;28;20492;-64
2022/10/04 13:19:37;;;;;;;1.50;1.43;;;25.70;81.00;;;;;;5072832;28;20460;-64
2022/10/04 13:22:29;;;;;;;2.03;1.60;;;25.70;80.20;;;;;;5072691;28;20946;-65
2022/10/04 13:25:11;;;;;;;2.20;1.70;;;25.90;79.40;;;;;;5072792;28;20448;-65
2022/10/04 13:27:48;;;;;;;1.90;1.77;;;26.10;78.90;;;;;;5072781;28;20456;-64
2022/10/04 13:30:23;;;;;;;2.60;2.00;;;26.10;79.20;;;;;;5072439;28;20487;-63
2022/10/04 13:33:00;;;;;;;1.83;1.70;;;26.20;77.40;;;;;;5072979;28;20867;-64
2022/10/04 13:35:36;;;;;;;4.20;2.50;;;26.40;77.90;;;;;;5071603;28;21016;-63
2022/10/04 13:38:39;;;;;;;2.63;2.03;;;26.60;78.60;;;;;;5072249;28;20547;-65
2022/10/04 13:41:17;;;;;;;1.83;1.70;;;26.50;79.10;;;;;;5057095;28;20452;-64
2022/10/04 13:44:06;;;;;;;1.67;1.50;;;26.30;77.50;;;;;;5072554;28;20690;-64
2022/10/04 13:46:44;;;;;;;2.90;1.87;;;26.50;80.70;;;;;;5072387;28;20502;-64
2022/10/04 13:49:26;;;;;;;2.73;1.70;;;26.60;77.30;;;;;;5072289;28;20571;-64
2022/10/04 13:58:11;;;;;;;3.40;1.70;;;26.50;77.60;;;;;;5029475;28;20914;-64
2022/10/04 14:01:04;;;;;;;2.60;1.87;;;26.60;79.70;;;;;;5065434;28;20471;-64
2022/10/04 14:03:55;;;;;;;2.13;1.83;;;26.80;77.30;;;;;;5072019;28;21021;-64
2022/10/04 14:06:50;;;;;;;1.90;1.70;;;27.10;79.00;;;;;;5071765;28;20453;-64
2022/10/04 14:09:35;;;;;;;2.63;1.80;;;27.30;77.20;;;;;;5071793;28;20461;-64
2022/10/04 14:12:39;;;;;;;1.80;1.77;;;27.30;77.30;;;;;;5071677;28;20460;-64
2022/10/04 14:15:37;;;;;;;2.20;1.93;;;27.30;76.80;;;;;;5045853;28;20461;-64
2022/10/04 14:18:33;;;;;;;2.53;1.60;;;27.30;75.80;;;;;;5071571;28;20457;-64
2022/10/04 14:21:47;;;;;;;2.20;1.70;;;27.30;75.00;;;;;;5071839;28;20464;-64
2022/10/04 14:24:47;;;;;;;2.20;1.93;;;27.30;78.00;;;;;;5035314;28;20519;-63
2022/10/04 14:27:39;;;;;;;2.20;1.70;;;27.50;79.40;;;;;;5071406;28;20457;-64